Time;durP1;ratioP1;P1;durP2;ratioP2;P2;SDS_P1;SDS_P2;PMS_P1;PMS_P2;Temp;Humidity;BMP_temperature;BMP_pressure;BME280_temperature;BME280_humidity;BME280_pressure;Samples;Min_cycle;Max_cycle;Signal;HPM_P1;HPM_P2
2024/01/12 00:02:25;;;;;;;13.35;6.30;;;;;;;-1.06;65.23;98712.06;5123350;27;20488;-78
2024/01/12 00:04:50;;;;;;;9.10;5.20;;;;;;;-0.77;64.68;98754.84;5134096;27;20038;-79
2024/01/12 00:07:15;;;;;;;8.73;5.10;;;;;;;-0.72;64.99;98759.22;5134468;27;20035;-78
2024/01/12 00:09:43;;;;;;;9.70;5.88;;;;;;;-0.73;64.09;98769.28;5133295;27;20434;-79
2024/01/12 00:12:09;;;;;;;13.45;5.22;;;;;;;-0.73;64.61;98763.06;5133973;27;20076;-80
2024/01/12 00:14:34;;;;;;;8.57;5.10;;;;;;;-0.66;63.89;98772.09;5135272;27;20031;-79
2024/01/12 00:17:00;;;;;;;12.15;5.82;;;;;;;-0.71;64.36;98769.69;5133487;27;20095;-78
2024/01/12 00:19:25;;;;;;;7.30;4.95;;;;;;;-0.95;64.64;98749.09;5134488;27;20019;-78
2024/01/12 00:21:52;;;;;;;10.48;6.35;;;;;;;-0.97;64.28;98735.13;5134273;27;20027;-78
2024/01/12 00:24:18;;;;;;;11.95;5.13;;;;;;;-0.88;62.97;98749.22;5133855;27;20038;-79
2024/01/12 00:26:44;;;;;;;11.43;5.93;;;;;;;-0.91;63.96;98760.81;5134018;27;20030;-79
2024/01/12 00:29:09;;;;;;;8.48;5.45;;;;;;;-0.87;63.42;98763.56;5119639;27;20401;-79
2024/01/12 00:31:35;;;;;;;10.20;6.05;;;;;;;-0.72;63.04;98772.78;5134260;27;20023;-79
2024/01/12 00:34:01;;;;;;;11.68;6.00;;;;;;;-0.59;61.88;98787.72;5134959;27;20164;-79
2024/01/12 00:36:26;;;;;;;9.38;4.88;;;;;;;-0.60;62.01;98786.13;5133710;27;20019;-78
2024/01/12 00:38:52;;;;;;;10.32;5.72;;;;;;;-1.04;61.96;98729.56;5119686;27;20042;-79
2024/01/12 00:41:17;;;;;;;11.68;5.63;;;;;;;-1.17;62.85;98719.22;5120919;27;20019;-79
2024/01/12 00:43:43;;;;;;;9.30;5.50;;;;;;;-1.08;61.77;98739.53;5119634;27;20047;-78
2024/01/12 00:46:08;;;;;;;10.60;5.85;;;;;;;-1.04;61.51;98747.75;5133373;27;20110;-79
2024/01/12 00:48:34;;;;;;;10.98;5.78;;;;;;;-0.96;61.76;98774.63;5132908;27;20049;-79
2024/01/12 00:50:59;;;;;;;16.67;8.38;;;;;;;-0.81;59.53;98808.25;5134797;27;20057;-79
2024/01/12 00:53:25;;;;;;;14.02;7.90;;;;;;;-1.00;59.53;98789.25;5134480;27;20051;-79
2024/01/12 00:55:50;;;;;;;11.23;6.10;;;;;;;-0.91;59.22;98809.63;5128076;27;20031;-78
2024/01/12 00:58:16;;;;;;;16.33;7.57;;;;;;;-1.48;60.04;98739.91;5126615;27;20025;-78
2024/01/12 01:00:41;;;;;;;19.75;8.10;;;;;;;-1.16;60.39;98794.78;5133259;27;20115;-78
2024/01/12 01:03:07;;;;;;;18.13;7.43;;;;;;;-1.04;58.98;98804.69;5119465;27;20039;-79
2024/01/12 01:05:33;;;;;;;9.73;6.10;;;;;;;-1.09;60.11;98781.38;5121035;27;20427;-78
2024/01/12 01:07:58;;;;;;;12.27;6.63;;;;;;;-0.93;61.93;98806.47;5132877;27;20491;-79
2024/01/12 01:10:24;;;;;;;7.78;5.00;;;;;;;-1.10;62.29;98762.75;5106782;27;20019;-78
2024/01/12 01:12:49;;;;;;;9.77;5.28;;;;;;;-1.30;60.00;98748.41;5133009;27;20468;-78
2024/01/12 01:15:15;;;;;;;8.43;4.93;;;;;;;-1.40;59.82;98735.44;5112719;28;20093;-78
2024/01/12 01:17:41;;;;;;;12.93;6.97;;;;;;;-0.88;59.68;98805.38;5126938;27;20114;-79
2024/01/12 01:20:10;;;;;;;20.45;8.27;;;;;;;-1.73;57.70;98682.50;5134079;27;20451;-79
2024/01/12 01:22:36;;;;;;;16.85;8.25;;;;;;;-1.53;57.98;98712.31;5133029;27;20035;-79
2024/01/12 01:25:02;;;;;;;12.00;6.75;;;;;;;-1.07;56.28;98778.28;5133096;27;20042;-79
2024/01/12 01:27:27;;;;;;;11.98;6.00;;;;;;;-1.13;55.65;98768.84;5132838;27;20122;-79
2024/01/12 01:29:53;;;;;;;12.52;7.65;;;;;;;-1.27;55.70;98745.75;5126924;27;20027;-78
2024/01/12 01:32:18;;;;;;;10.40;5.45;;;;;;;-0.90;53.07;98766.97;5126077;27;20034;-79
2024/01/12 01:34:44;;;;;;;8.20;4.55;;;;;;;-1.06;51.99;98696.59;5132684;27;20463;-79
2024/01/12 01:37:09;;;;;;;14.95;6.80;;;;;;;-1.07;53.88;98700.44;5132194;27;20507;-78
2024/01/12 01:39:35;;;;;;;28.40;13.32;;;;;;;-0.76;54.38;98758.34;5134035;27;20058;-79
2024/01/12 01:42:01;;;;;;;12.23;6.20;;;;;;;-1.19;55.82;98722.28;5118331;27;20463;-79
2024/01/12 01:44:27;;;;;;;15.50;8.07;;;;;;;-1.67;57.72;98664.84;5133693;27;20484;-80
2024/01/12 01:46:54;;;;;;;10.27;5.60;;;;;;;-1.27;57.68;98731.44;5132162;27;20053;-78
2024/01/12 01:49:21;;;;;;;9.98;5.35;;;;;;;-1.12;58.47;98722.44;5118457;27;20031;-79
2024/01/12 01:51:47;;;;;;;10.00;6.60;;;;;;;-1.16;58.15;98724.28;5131574;27;20047;-80
2024/01/12 01:54:13;;;;;;;14.90;9.73;;;;;;;-1.28;56.71;98686.50;5132403;27;20068;-79
2024/01/12 01:56:40;;;;;;;10.98;6.20;;;;;;;-1.27;58.06;98671.81;5118981;27;20509;-79
2024/01/12 01:59:06;;;;;;;6.30;3.50;;;;;;;-1.40;56.70;98663.06;5119557;27;20070;-79
2024/01/12 02:01:32;;;;;;;8.52;4.55;;;;;;;-1.30;56.07;98683.34;5133104;27;20050;-79
2024/01/12 02:03:57;;;;;;;8.13;4.30;;;;;;;-1.07;52.97;98676.03;5133382;27;20059;-79
2024/01/12 02:06:23;;;;;;;8.35;4.68;;;;;;;-0.93;54.03;98668.16;5132310;27;20023;-80
2024/01/12 02:08:50;;;;;;;8.93;4.93;;;;;;;-0.85;52.97;98671.78;5132206;27;20019;-80
2024/01/12 02:11:15;;;;;;;5.85;3.05;;;;;;;-0.86;52.79;98667.50;5118553;27;20024;-79
2024/01/12 02:13:41;;;;;;;9.57;4.35;;;;;;;-0.72;53.29;98696.81;5124839;27;20023;-79
2024/01/12 02:16:07;;;;;;;7.30;4.57;;;;;;;-0.93;52.03;98653.81;5125440;27;20035;-79
2024/01/12 02:18:32;;;;;;;9.43;4.65;;;;;;;-0.74;54.13;98716.16;5131935;27;20072;-79
2024/01/12 02:20:58;;;;;;;7.35;3.88;;;;;;;-0.96;53.95;98704.13;5132999;27;20015;-79
2024/01/12 02:23:23;;;;;;;7.70;4.30;;;;;;;-0.67;53.84;98726.34;5114823;27;20077;-78
2024/01/12 02:25:49;;;;;;;9.02;5.32;;;;;;;-0.95;55.13;98700.28;5118236;27;20035;-78
2024/01/12 02:28:16;;;;;;;9.50;5.22;;;;;;;-1.12;54.37;98695.31;5120397;27;20030;-80
2024/01/12 02:30:42;;;;;;;7.40;4.85;;;;;;;-1.22;54.66;98666.09;5117345;27;20027;-78
2024/01/12 02:33:08;;;;;;;8.23;5.70;;;;;;;-1.15;56.14;98711.53;5119037;27;20117;-78
2024/01/12 02:35:33;;;;;;;11.93;5.57;;;;;;;-1.51;55.30;98650.44;5130817;27;20110;-79
2024/01/12 02:37:59;;;;;;;8.02;4.53;;;;;;;-1.04;54.42;98737.69;5118576;27;20057;-79
2024/01/12 02:40:25;;;;;;;9.45;4.88;;;;;;;-1.25;55.67;98697.41;5131546;27;20027;-78
2024/01/12 02:42:50;;;;;;;8.23;4.63;;;;;;;-1.37;53.83;98685.91;5131500;27;20034;-80
2024/01/12 02:45:16;;;;;;;10.38;5.03;;;;;;;-1.46;56.14;98669.13;5131061;27;20031;-79
2024/01/12 02:47:43;;;;;;;9.50;6.93;;;;;;;-1.47;57.06;98671.03;5133191;27;20023;-78
2024/01/12 02:50:08;;;;;;;7.70;4.07;;;;;;;-1.41;55.81;98688.56;5131682;27;20035;-79
2024/01/12 02:52:37;;;;;;;12.02;6.28;;;;;;;-1.24;55.27;98703.59;5131576;27;20553;-78
2024/01/12 02:55:03;;;;;;;9.98;5.53;;;;;;;-1.49;55.33;98658.97;5131472;27;20128;-79
2024/01/12 02:57:29;;;;;;;10.90;5.75;;;;;;;-1.48;56.14;98660.56;5132201;27;20083;-78
2024/01/12 02:59:55;;;;;;;11.27;5.10;;;;;;;-1.53;55.64;98639.16;5130893;27;20024;-78
2024/01/12 03:02:20;;;;;;;13.27;5.80;;;;;;;-1.61;56.06;98630.13;5131637;27;20030;-78
2024/01/12 03:04:46;;;;;;;12.10;5.32;;;;;;;-1.31;56.08;98671.72;5131637;27;20043;-77
2024/01/12 03:07:11;;;;;;;10.05;5.65;;;;;;;-1.41;54.43;98656.06;5122234;27;20098;-78
2024/01/12 03:09:38;;;;;;;5.15;3.67;;;;;;;-1.04;53.85;98685.41;5120472;27;20023;-79
2024/01/12 03:12:04;;;;;;;8.38;3.75;;;;;;;-1.35;54.50;98645.72;5119830;28;20015;-78
2024/01/12 03:14:29;;;;;;;9.20;4.63;;;;;;;-1.27;54.59;98669.84;5131141;27;20513;-79
2024/01/12 03:16:55;;;;;;;8.23;5.00;;;;;;;-1.24;53.62;98662.94;5130934;27;20411;-79
2024/01/12 03:19:20;;;;;;;8.63;5.07;;;;;;;-1.11;54.67;98688.75;5131967;27;20027;-78
2024/01/12 03:21:46;;;;;;;12.00;6.57;;;;;;;-1.01;52.85;98693.59;5130577;28;20023;-79
2024/01/12 03:24:11;;;;;;;9.02;5.40;;;;;;;-1.08;52.66;98684.53;5131777;27;20477;-78
2024/01/12 03:26:37;;;;;;;9.18;6.18;;;;;;;-0.99;52.98;98704.84;5103748;28;20049;-79
2024/01/12 03:29:03;;;;;;;9.32;3.90;;;;;;;-1.08;52.20;98690.72;5131055;27;20397;-77
2024/01/12 03:31:29;;;;;;;9.30;5.57;;;;;;;-0.91;53.02;98728.25;5116856;28;20023;-78
2024/01/12 03:33:54;;;;;;;13.95;7.05;;;;;;;-0.96;52.86;98712.25;5131070;28;20088;-79
2024/01/12 03:36:22;;;;;;;60.22;24.10;;;;;;;-0.99;52.55;98726.56;5130857;27;20027;-78
2024/01/12 03:38:48;;;;;;;71.00;23.77;;;;;;;-0.97;52.76;98727.00;5130323;27;20031;-79
2024/01/12 03:41:14;;;;;;;57.13;20.08;;;;;;;-1.11;52.29;98729.41;5132417;27;20034;-77
2024/01/12 03:43:40;;;;;;;64.35;20.63;;;;;;;-1.03;52.37;98743.91;5130727;27;20031;-78
2024/01/12 03:46:05;;;;;;;106.90;28.90;;;;;;;-1.33;52.41;98701.13;5131859;27;20072;-78
2024/01/12 03:48:32;;;;;;;173.68;42.13;;;;;;;-1.01;53.43;98750.53;5130841;27;20027;-78
2024/01/12 03:50:57;;;;;;;150.43;40.22;;;;;;;-1.13;53.38;98730.91;5130394;27;20106;-78
2024/01/12 03:53:23;;;;;;;101.15;27.38;;;;;;;-1.27;52.85;98709.75;5129845;27;20484;-79
2024/01/12 03:55:48;;;;;;;90.75;26.88;;;;;;;-1.38;52.80;98682.44;5130252;27;20020;-78
2024/01/12 03:58:14;;;;;;;54.33;18.13;;;;;;;-1.04;52.25;98734.97;5131279;27;20097;-78
2024/01/12 04:00:40;;;;;;;28.15;9.27;;;;;;;-1.19;51.23;98719.56;5124795;27;20024;-78
2024/01/12 04:03:05;;;;;;;33.75;11.52;;;;;;;-0.91;52.33;98754.59;5123381;27;20054;-77
2024/01/12 04:05:31;;;;;;;38.85;12.85;;;;;;;-1.04;52.13;98716.00;5130618;27;20081;-78
2024/01/12 04:07:56;;;;;;;116.35;32.05;;;;;;;-1.12;50.95;98697.25;5131417;27;20099;-76
2024/01/12 04:10:22;;;;;;;24.33;9.85;;;;;;;-1.09;52.90;98710.09;5116844;28;20077;-78
2024/01/12 04:12:47;;;;;;;79.03;22.05;;;;;;;-1.02;51.59;98719.13;5130380;27;20015;-79
2024/01/12 04:15:12;;;;;;;30.80;9.70;;;;;;;-1.15;50.91;98706.88;5135405;27;20035;-78
2024/01/12 04:17:41;;;;;;;54.30;17.75;;;;;;;-1.82;52.09;98606.13;5133732;27;20035;-78
2024/01/12 04:20:09;;;;;;;27.20;11.20;;;;;;;-0.99;51.75;98721.13;5133797;27;20027;-79
2024/01/12 04:22:34;;;;;;;30.95;9.98;;;;;;;-1.37;50.85;98662.31;5133562;27;20024;-77
2024/01/12 04:25:00;;;;;;;27.08;8.80;;;;;;;-1.44;51.70;98653.25;5134295;27;20042;-79
2024/01/12 04:27:26;;;;;;;54.78;15.23;;;;;;;-1.26;51.83;98684.97;5133686;27;20484;-79
2024/01/12 04:29:52;;;;;;;26.20;9.40;;;;;;;-1.15;51.36;98701.47;5133822;27;20023;-79
2024/01/12 04:32:18;;;;;;;37.22;10.77;;;;;;;-1.59;50.10;98648.72;5134453;27;20026;-81
2024/01/12 04:34:43;;;;;;;32.38;9.05;;;;;;;-1.45;50.19;98667.97;5120165;27;20061;-77
2024/01/12 04:37:08;;;;;;;59.47;14.27;;;;;;;-1.21;50.63;98708.31;5133245;27;20030;-78
2024/01/12 04:39:34;;;;;;;27.90;8.07;;;;;;;-1.21;50.78;98692.06;5133479;27;20042;-78
2024/01/12 04:41:59;;;;;;;27.80;9.30;;;;;;;-1.39;49.98;98669.25;5134408;27;20019;-77
2024/01/12 04:44:25;;;;;;;93.15;22.33;;;;;;;-1.14;50.81;98708.44;5134174;27;20038;-77
2024/01/12 04:46:50;;;;;;;34.10;12.00;;;;;;;-1.14;51.21;98694.88;5134957;27;20037;-77
2024/01/12 04:49:16;;;;;;;27.23;8.50;;;;;;;-1.43;51.25;98671.09;5133560;27;20511;-81
2024/01/12 04:51:41;;;;;;;93.03;20.70;;;;;;;-1.30;49.65;98691.47;5134054;27;20062;-77
2024/01/12 04:54:07;;;;;;;213.63;48.20;;;;;;;-0.98;50.18;98730.84;5132798;27;20442;-77
2024/01/12 04:56:32;;;;;;;38.75;12.02;;;;;;;-1.21;50.10;98715.66;5132857;27;20038;-77
2024/01/12 04:58:58;;;;;;;67.30;19.70;;;;;;;-1.13;51.66;98707.28;5132261;27;20109;-77
2024/01/12 05:01:23;;;;;;;173.50;41.53;;;;;;;-1.35;50.26;98680.94;5132916;27;20027;-78
2024/01/12 05:03:49;;;;;;;26.75;9.07;;;;;;;-1.30;50.59;98696.91;5133494;27;20019;-77
2024/01/12 05:06:14;;;;;;;88.55;21.63;;;;;;;-1.06;49.38;98721.00;5132787;27;20407;-78
2024/01/12 05:08:40;;;;;;;153.63;35.90;;;;;;;-1.03;50.46;98736.56;5132674;27;20030;-77
2024/01/12 05:11:05;;;;;;;235.55;44.85;;;;;;;-1.39;50.93;98686.31;5132794;27;20027;-77
2024/01/12 05:13:31;;;;;;;111.85;24.10;;;;;;;-1.52;50.10;98686.78;5132274;27;20042;-78
2024/01/12 05:15:56;;;;;;;82.28;20.08;;;;;;;-1.28;49.10;98703.53;5132707;27;20023;-78
2024/01/12 05:18:22;;;;;;;56.72;17.52;;;;;;;-0.95;49.76;98749.09;5132156;27;20034;-77
2024/01/12 05:20:47;;;;;;;57.70;16.63;;;;;;;-1.11;50.26;98740.25;5119489;27;20020;-77
2024/01/12 05:23:13;;;;;;;53.75;16.40;;;;;;;-1.17;50.56;98733.56;5119273;27;20112;-77
2024/01/12 05:25:38;;;;;;;247.65;54.80;;;;;;;-0.84;50.15;98757.41;5131986;27;20029;-78
2024/01/12 05:28:04;;;;;;;154.48;37.42;;;;;;;-1.78;49.99;98625.13;5126282;27;20042;-77
2024/01/12 05:30:30;;;;;;;71.28;19.48;;;;;;;-1.24;50.53;98728.00;5117536;27;20102;-77
2024/01/12 05:32:56;;;;;;;56.70;15.35;;;;;;;-1.43;51.13;98696.25;5116118;27;20439;-77
2024/01/12 05:35:21;;;;;;;49.83;15.65;;;;;;;-1.07;49.27;98756.59;5132199;27;20020;-78
2024/01/12 05:37:46;;;;;;;83.43;20.63;;;;;;;-1.14;50.52;98724.69;5131668;27;20068;-77
2024/01/12 05:40:12;;;;;;;21.10;8.38;;;;;;;-1.08;49.55;98753.09;5132319;27;20770;-78
2024/01/12 05:42:38;;;;;;;9.73;5.45;;;;;;;-1.03;50.26;98752.03;5132914;27;20412;-77
2024/01/12 05:45:03;;;;;;;7.68;5.18;;;;;;;-1.30;49.01;98705.81;5131582;27;20030;-77
2024/01/12 05:47:29;;;;;;;8.98;4.47;;;;;;;-1.29;48.74;98701.97;5131861;27;20027;-79
2024/01/12 05:49:54;;;;;;;5.78;3.47;;;;;;;-0.69;47.00;98764.69;5132128;27;20023;-77
2024/01/12 05:52:20;;;;;;;6.55;3.78;;;;;;;-0.80;47.37;98742.00;5131727;27;20104;-77
2024/01/12 05:54:45;;;;;;;10.02;4.03;;;;;;;-1.13;47.89;98676.69;5132043;27;20049;-79
2024/01/12 05:57:11;;;;;;;5.50;3.72;;;;;;;-0.82;47.49;98731.50;5126980;27;20026;-79
2024/01/12 05:59:36;;;;;;;8.20;4.47;;;;;;;-0.79;47.28;98738.16;5111734;28;20031;-77
2024/01/12 06:02:03;;;;;;;10.35;4.35;;;;;;;-0.88;47.56;98732.94;5129763;27;20091;-77
2024/01/12 06:04:29;;;;;;;7.90;3.78;;;;;;;-0.68;48.07;98789.88;5132297;27;20023;-77
2024/01/12 06:06:55;;;;;;;6.25;3.97;;;;;;;-0.70;47.28;98773.97;5131831;27;20761;-77
2024/01/12 06:09:20;;;;;;;8.32;4.53;;;;;;;-0.62;48.19;98799.31;5132545;27;20479;-77
2024/01/12 06:11:46;;;;;;;8.23;4.50;;;;;;;-1.01;46.63;98745.09;5119353;27;20066;-78
2024/01/12 06:14:15;;;;;;;9.20;4.57;;;;;;;-0.88;47.73;98786.41;5132066;27;20031;-77
2024/01/12 06:16:40;;;;;;;11.73;5.93;;;;;;;-0.81;48.94;98808.25;5131764;27;20031;-77
2024/01/12 06:19:05;;;;;;;12.52;6.07;;;;;;;-0.98;48.65;98795.13;5122571;27;20031;-78
2024/01/12 06:21:31;;;;;;;9.85;5.72;;;;;;;-1.10;50.02;98771.66;5127815;27;20126;-76
2024/01/12 06:23:56;;;;;;;14.90;6.15;;;;;;;-1.01;50.46;98783.06;5134148;27;20088;-77
2024/01/12 06:26:22;;;;;;;33.78;13.80;;;;;;;-0.65;50.78;98833.34;5119113;27;20400;-78
2024/01/12 06:28:47;;;;;;;14.52;7.20;;;;;;;-0.71;51.41;98829.34;5131107;27;20069;-77
2024/01/12 06:31:13;;;;;;;12.25;5.90;;;;;;;-0.42;49.30;98857.81;5131062;27;20027;-77
2024/01/12 06:33:38;;;;;;;15.40;6.43;;;;;;;-0.66;49.32;98784.91;5132487;27;20033;-77
2024/01/12 06:36:04;;;;;;;10.27;5.07;;;;;;;-0.41;48.72;98821.38;5128874;27;20033;-77
2024/01/12 06:38:30;;;;;;;11.13;5.75;;;;;;;-0.17;49.26;98831.91;5120483;27;20030;-79
2024/01/12 06:40:55;;;;;;;15.10;7.65;;;;;;;-0.39;50.28;98789.25;5130796;27;20027;-78
2024/01/12 06:43:21;;;;;;;21.30;8.15;;;;;;;-0.06;49.23;98816.56;5131798;27;20043;-77
2024/01/12 06:45:46;;;;;;;12.40;6.22;;;;;;;-0.09;50.66;98808.38;5130260;27;20050;-77
2024/01/12 06:48:12;;;;;;;8.82;4.53;;;;;;;0.13;49.18;98829.28;5131051;27;20056;-78
2024/01/12 06:50:37;;;;;;;6.88;4.13;;;;;;;-0.03;48.90;98785.97;5130441;27;20030;-79
2024/01/12 06:53:08;;;;;;;12.32;5.18;;;;;;;0.22;47.46;98810.81;5132376;27;20051;-79
2024/01/12 06:55:34;;;;;;;15.32;7.00;;;;;;;-0.10;47.78;98745.13;5131122;27;20027;-78
2024/01/12 06:58:00;;;;;;;19.13;7.40;;;;;;;0.22;48.21;98797.22;5121418;27;20031;-79
2024/01/12 07:00:26;;;;;;;8.60;4.90;;;;;;;0.26;49.26;98797.28;5115394;27;20049;-79
2024/01/12 07:02:51;;;;;;;7.15;4.07;;;;;;;0.28;47.66;98803.91;5113304;28;20035;-79
2024/01/12 07:05:17;;;;;;;12.45;4.55;;;;;;;0.19;48.63;98799.88;5131906;27;20050;-79
2024/01/12 07:07:43;;;;;;;11.57;5.30;;;;;;;-0.01;48.86;98767.41;5130526;27;20037;-79
2024/01/12 07:10:11;;;;;;;11.63;5.78;;;;;;;0.44;50.00;98827.44;5130805;27;20405;-79
2024/01/12 07:12:36;;;;;;;;;;;;;;;0.57;48.09;98832.28;5130876;27;20026;-81
2024/01/12 07:15:02;;;;;;;12.65;5.15;;;;;;;-0.20;48.54;98721.31;5125154;27;19911;-79
2024/01/12 07:17:27;;;;;;;8.95;5.10;;;;;;;0.32;49.29;98806.69;5118751;27;20068;-79
2024/01/12 07:19:53;;;;;;;7.32;4.00;;;;;;;-0.13;49.34;98726.88;5110594;28;20038;-79
2024/01/12 07:22:18;;;;;;;8.52;4.20;;;;;;;0.58;47.71;98795.03;5112520;28;20114;-78
2024/01/12 07:24:44;;;;;;;15.10;6.07;;;;;;;0.91;47.06;98818.75;5102118;28;20511;-78
2024/01/12 07:27:09;;;;;;;10.05;4.88;;;;;;;1.07;46.77;98803.81;5120639;27;20035;-79
2024/01/12 07:29:35;;;;;;;10.15;5.00;;;;;;;1.37;46.38;98851.97;5095481;28;20024;-79
2024/01/12 07:32:00;;;;;;;8.55;4.28;;;;;;;1.47;46.39;98843.94;5100053;28;20489;-77
2024/01/12 07:34:26;;;;;;;9.70;5.38;;;;;;;0.74;45.94;98706.66;5126866;27;20042;-79
2024/01/12 07:36:51;;;;;;;10.68;5.65;;;;;;;1.69;46.11;98863.22;5128234;28;20057;-77
2024/01/12 07:39:17;;;;;;;11.50;5.80;;;;;;;1.39;45.61;98828.66;5119314;28;20030;-78
2024/01/12 07:41:43;;;;;;;5.75;3.70;;;;;;;1.33;45.96;98804.88;5127551;27;20243;-77
2024/01/12 07:44:11;;;;;;;12.52;4.57;;;;;;;1.31;46.01;98790.88;5123076;27;20027;-77
2024/01/12 07:46:36;;;;;;;5.85;3.30;;;;;;;1.38;45.51;98810.00;5094130;28;20031;-77
2024/01/12 07:49:02;;;;;;;9.85;5.10;;;;;;;1.58;46.22;98824.97;5114518;28;20019;-79
2024/01/12 07:51:27;;;;;;;12.35;5.63;;;;;;;1.67;46.48;98854.63;5114458;28;20054;-77
2024/01/12 07:53:53;;;;;;;14.65;6.72;;;;;;;1.56;46.88;98844.44;5114407;28;20035;-79
2024/01/12 07:56:18;;;;;;;17.35;7.20;;;;;;;1.53;46.32;98822.59;5114782;28;20051;-77
2024/01/12 07:58:44;;;;;;;11.95;7.05;;;;;;;1.38;46.28;98810.78;5114698;28;20077;-77
2024/01/12 08:01:13;;;;;;;7.82;4.57;;;;;;;1.67;46.82;98858.16;5114958;28;20024;-77
2024/01/12 08:03:40;;;;;;;14.10;6.28;;;;;;;1.88;46.73;98871.19;5114119;28;20023;-77
2024/01/12 08:06:06;;;;;;;11.15;5.45;;;;;;;1.96;45.86;98872.84;5115614;27;20034;-77
2024/01/12 08:08:32;;;;;;;8.63;5.25;;;;;;;1.64;44.93;98802.47;5114116;28;20405;-77
2024/01/12 08:10:57;;;;;;;19.45;8.48;;;;;;;1.94;44.29;98837.78;5114928;28;20031;-79
2024/01/12 08:13:25;;;;;;;20.23;8.18;;;;;;;2.49;44.74;98880.69;5113990;28;20031;-79
2024/01/12 08:15:51;;;;;;;17.15;7.32;;;;;;;2.17;44.84;98840.31;5114643;28;20115;-79
2024/01/12 08:18:18;;;;;;;16.35;7.70;;;;;;;1.95;44.75;98805.88;5113998;28;20087;-77
2024/01/12 08:20:44;;;;;;;17.17;7.50;;;;;;;2.26;45.79;98840.00;5115402;28;20023;-77
2024/01/12 08:23:10;;;;;;;13.05;6.55;;;;;;;2.26;46.93;98837.28;5114183;28;20047;-77
2024/01/12 08:25:35;;;;;;;15.00;7.00;;;;;;;2.57;44.93;98874.91;5113686;28;20477;-80
2024/01/12 08:28:01;;;;;;;13.80;7.18;;;;;;;2.67;46.59;98876.91;5115215;28;20016;-77
2024/01/12 08:30:26;;;;;;;19.17;7.72;;;;;;;2.61;45.88;98883.09;5114457;28;20517;-79
2024/01/12 08:32:52;;;;;;;18.30;9.48;;;;;;;2.63;45.22;98886.25;5114026;28;20397;-78
2024/01/12 08:35:17;;;;;;;19.27;8.90;;;;;;;2.92;47.22;98912.56;5113842;28;20051;-77
2024/01/12 08:37:43;;;;;;;19.85;8.55;;;;;;;2.54;47.46;98845.66;5113455;28;20028;-78
2024/01/12 08:40:09;;;;;;;17.20;7.55;;;;;;;2.80;46.06;98877.41;5113335;28;20080;-79
2024/01/12 08:42:34;;;;;;;18.00;8.60;;;;;;;2.64;47.53;98866.00;5113320;28;20027;-78
2024/01/12 08:45:00;;;;;;;18.17;8.75;;;;;;;2.79;47.20;98912.09;5112970;28;20378;-80
2024/01/12 08:47:26;;;;;;;19.88;9.23;;;;;;;2.35;47.34;98873.94;5130928;27;20015;-78
2024/01/12 08:49:52;;;;;;;19.92;9.63;;;;;;;2.50;48.70;98872.13;5132401;27;20084;-79
2024/01/12 08:52:17;;;;;;;18.67;9.93;;;;;;;2.86;48.55;98922.25;5132108;27;20618;-79
2024/01/12 08:54:43;;;;;;;15.77;9.18;;;;;;;2.80;47.92;98921.06;5131973;27;20039;-77
2024/01/12 08:57:09;;;;;;;18.17;8.07;;;;;;;2.81;49.05;98923.41;5132076;27;20212;-77
2024/01/12 08:59:34;;;;;;;17.27;8.63;;;;;;;2.60;49.72;98892.44;5131651;27;20076;-80
2024/01/12 09:02:00;;;;;;;24.42;9.35;;;;;;;2.67;47.87;98930.69;5132069;27;20023;-77
2024/01/12 09:04:28;;;;;;;19.50;8.68;;;;;;;2.57;47.77;98928.66;5133817;27;20027;-78
2024/01/12 09:06:53;;;;;;;;;;;;;;;2.68;47.88;98940.44;5132745;27;20022;-79
2024/01/12 09:09:18;;;;;;;14.43;7.72;;;;;;;2.21;48.87;98911.22;5132469;27;19911;-78
2024/01/12 09:11:44;;;;;;;18.48;8.57;;;;;;;1.43;50.33;98810.44;5117505;27;20115;-77
2024/01/12 09:14:10;;;;;;;36.35;12.10;;;;;;;1.90;50.66;98887.94;5121538;27;20104;-78
2024/01/12 09:16:36;;;;;;;44.08;11.38;;;;;;;2.14;48.34;98917.38;5129959;27;20026;-78
2024/01/12 09:19:01;;;;;;;23.75;8.43;;;;;;;2.50;44.90;98939.50;5121290;27;20058;-76
2024/01/12 09:21:27;;;;;;;20.90;8.70;;;;;;;2.61;45.05;98932.19;5130553;27;20404;-78
2024/01/12 09:23:52;;;;;;;23.20;10.02;;;;;;;2.57;43.40;98917.75;5134527;27;20083;-80
2024/01/12 09:26:18;;;;;;;51.47;19.88;;;;;;;2.47;44.06;98908.34;5133187;27;20472;-78
2024/01/12 09:28:43;;;;;;;22.05;8.77;;;;;;;2.53;43.65;98917.75;5135483;27;20027;-77
2024/01/12 09:31:09;;;;;;;19.65;8.70;;;;;;;2.48;44.22;98934.44;5117858;27;20063;-78
2024/01/12 09:33:34;;;;;;;12.00;6.05;;;;;;;2.61;44.03;98962.19;5117234;28;20027;-79
2024/01/12 09:36:02;;;;;;;13.60;5.55;;;;;;;2.17;44.38;98905.72;5112999;28;20084;-78
2024/01/12 09:38:27;;;;;;;12.02;6.57;;;;;;;2.25;44.66;98929.16;5111816;28;20034;-78
2024/01/12 09:40:53;;;;;;;10.60;4.90;;;;;;;2.17;45.22;98919.34;5115889;27;20031;-79
2024/01/12 09:43:21;;;;;;;8.13;4.70;;;;;;;2.48;45.20;98958.97;5106437;27;20062;-77
2024/01/12 09:45:49;;;;;;;10.25;4.78;;;;;;;2.40;45.23;98935.53;5124693;27;20042;-80
2024/01/12 09:48:15;;;;;;;17.90;6.18;;;;;;;2.57;45.48;98953.22;5112876;28;20098;-79
2024/01/12 09:50:42;;;;;;;12.52;5.72;;;;;;;2.52;45.23;98934.47;5120405;27;20622;-77
2024/01/12 09:53:08;;;;;;;8.52;4.60;;;;;;;2.12;44.81;98886.22;5126005;27;20473;-77
2024/01/12 09:55:33;;;;;;;11.52;5.93;;;;;;;2.29;44.63;98899.22;5128472;27;20027;-79
2024/01/12 09:58:00;;;;;;;12.57;6.15;;;;;;;2.60;45.73;98922.44;5125898;27;20027;-80
2024/01/12 10:00:26;;;;;;;12.82;6.30;;;;;;;2.69;45.21;98951.00;5115512;27;20046;-79
2024/01/12 10:02:55;;;;;;;12.73;5.15;;;;;;;2.23;44.26;98884.38;5131342;27;20180;-77
2024/01/12 10:05:22;;;;;;;13.65;7.68;;;;;;;2.52;44.96;98934.47;5132914;27;20027;-80
2024/01/12 10:07:47;;;;;;;9.80;4.88;;;;;;;2.55;44.74;98934.50;5131729;27;20143;-81
2024/01/12 10:10:13;;;;;;;10.98;5.53;;;;;;;2.63;44.74;98932.63;5117246;27;20031;-80
2024/01/12 10:12:38;;;;;;;9.60;4.63;;;;;;;2.71;44.43;98929.56;5117907;27;20027;-81
2024/01/12 10:15:09;;;;;;;15.77;5.68;;;;;;;3.04;43.95;98945.00;5121484;27;20051;-78
2024/01/12 10:17:35;;;;;;;8.27;3.97;;;;;;;3.32;43.32;98952.56;5131372;27;20035;-78
2024/01/12 10:20:01;;;;;;;10.65;3.92;;;;;;;3.50;43.16;98947.19;5131045;27;20019;-79
2024/01/12 10:22:26;;;;;;;13.85;6.28;;;;;;;3.90;43.71;98955.19;5127444;27;20051;-78
2024/01/12 10:24:59;;;;;;;10.25;5.15;;;;;;;3.75;42.34;98896.16;5127642;27;20050;-78
2024/01/12 10:27:26;;;;;;;13.02;5.70;;;;;;;4.25;42.22;98951.75;5107952;28;20031;-82
2024/01/12 10:29:52;;;;;;;9.38;4.88;;;;;;;4.20;41.51;98934.94;5110110;28;20027;-78
2024/01/12 10:32:20;;;;;;;15.27;7.97;;;;;;;4.47;41.93;98941.63;5109844;28;20034;-79
2024/01/12 10:34:50;;;;;;;13.93;6.32;;;;;;;4.35;40.91;98909.16;5108786;27;20404;-79
2024/01/12 10:37:16;;;;;;;23.42;13.45;;;;;;;4.57;40.89;98918.97;5131129;27;20058;-80
2024/01/12 10:39:46;;;;;;;15.98;8.07;;;;;;;4.25;40.33;98908.00;5117716;27;20074;-79
2024/01/12 10:42:13;;;;;;;15.80;8.10;;;;;;;4.11;40.06;98899.75;5121663;27;20126;-79
2024/01/12 10:44:40;;;;;;;21.33;10.98;;;;;;;3.64;41.00;98863.34;5126873;27;20031;-80
2024/01/12 10:47:17;;;;;;;17.95;11.00;;;;;;;3.90;41.07;98884.13;5121100;27;20468;-78
2024/01/12 10:49:50;;;;;;;24.80;13.73;;;;;;;4.34;41.16;98954.88;5110099;28;20023;-79
2024/01/12 10:52:34;;;;;;;14.00;7.97;;;;;;;4.35;41.19;98956.44;5110469;28;20056;-80
2024/01/12 10:55:07;;;;;;;35.65;16.20;;;;;;;4.28;40.75;98961.16;5107732;27;20096;-79
2024/01/12 10:57:33;;;;;;;18.33;9.57;;;;;;;3.92;41.75;98906.38;5131876;27;20027;-82
2024/01/12 10:59:59;;;;;;;21.67;12.93;;;;;;;4.03;41.39;98958.34;5124144;27;20026;-79
2024/01/12 11:02:25;;;;;;;20.85;9.10;;;;;;;3.53;40.72;98886.34;5110336;28;20530;-78
2024/01/12 11:04:51;;;;;;;13.43;6.25;;;;;;;3.86;41.28;98948.16;5109754;28;20011;-77
2024/01/12 11:07:18;;;;;;;12.65;7.82;;;;;;;3.84;40.61;98931.34;5124403;28;20015;-77
2024/01/12 11:09:43;;;;;;;16.63;8.98;;;;;;;4.10;42.26;98942.72;5118501;27;20076;-78
2024/01/12 11:12:12;;;;;;;10.70;6.90;;;;;;;4.01;41.96;98927.88;5129893;27;20058;-78
2024/01/12 11:14:40;;;;;;;18.33;9.68;;;;;;;4.01;42.41;98934.13;5124852;27;20024;-78
2024/01/12 11:17:08;;;;;;;;;;;;;;;4.02;41.93;98938.44;5123196;27;20494;-77
2024/01/12 11:19:34;;;;;;;16.13;8.35;;;;;;;3.67;42.61;98922.72;5117466;28;19919;-78
2024/01/12 11:22:07;;;;;;;12.93;8.13;;;;;;;3.91;43.50;98934.88;5116471;27;20493;-78
2024/01/12 11:24:35;;;;;;;11.95;6.53;;;;;;;3.64;42.54;98909.00;5122491;27;20096;-78